Terminal Aerodrome Forecast
Issued by NWS Wilmington, OH

Home | Current Version | Previous Version | Text Only | Print | Product List | Glossary On
Versions: 1 2 3 4 5 6 7 8 9 10 11 12 13 14 15 16 17 18
000
FTUS41 KILN 302200 AAB
TAFCMH
TAF AMD
KCMH 302205Z 3022/0118 35007KT P6SM BKN019
     FM010300 35005KT 5SM BR BKN010
      TEMPO 0108/0112 1SM BR OVC003
     FM011500 06003KT P6SM BKN012=

USA.gov is the U.S. government's official web portal to all federal, state and local government web resources and services.